Time;durP1;ratioP1;P1;durP2;ratioP2;P2;SDS_P1;SDS_P2;PMS_P1;PMS_P2;Temp;Humidity;BMP_temperature;BMP_pressure;BME280_temperature;BME280_humidity;BME280_pressure;Samples;Min_cycle;Max_cycle;Signal;HPM_P1;HPM_P2
2023/07/07 00:00:05;;;;;;;94.88;90.50;;;;;;;24.70;37.80;101773.84;5093404;28;20035;-69
2023/07/07 00:02:30;;;;;;;95.70;91.28;;;;;;;24.68;38.13;101770.59;5093381;28;20487;-69
2023/07/07 00:04:55;;;;;;;91.78;87.32;;;;;;;24.65;38.08;101776.75;5093202;28;20036;-68
2023/07/07 00:07:21;;;;;;;95.05;90.57;;;;;;;24.62;37.60;101774.59;5093307;28;20111;-68
2023/07/07 00:09:47;;;;;;;93.88;88.97;;;;;;;24.59;37.97;101772.44;5094103;28;20456;-70
2023/07/07 00:12:13;;;;;;;93.63;89.03;;;;;;;24.57;37.77;101774.72;5093650;28;20376;-69
2023/07/07 00:14:39;;;;;;;90.38;85.97;;;;;;;24.54;37.64;101776.13;5093708;28;20047;-70
2023/07/07 00:17:05;;;;;;;91.53;86.70;;;;;;;24.52;37.60;101780.34;5093460;28;20024;-69
2023/07/07 00:19:36;;;;;;;93.65;89.25;;;;;;;24.48;37.65;101782.94;5093118;28;20036;-70
2023/07/07 00:22:05;;;;;;;92.30;87.75;;;;;;;24.46;37.78;101785.19;5093522;28;20105;-69
2023/07/07 00:24:32;;;;;;;95.30;90.47;;;;;;;24.42;37.82;101773.09;5094044;28;20356;-70
2023/07/07 00:26:58;;;;;;;93.70;89.40;;;;;;;24.40;38.12;101781.69;5093378;28;20032;-68
2023/07/07 00:29:23;;;;;;;90.57;86.38;;;;;;;24.37;38.04;101787.03;5093353;28;20028;-69
2023/07/07 00:31:49;;;;;;;90.35;86.00;;;;;;;24.34;38.24;101777.44;5092946;28;20449;-69
2023/07/07 00:34:14;;;;;;;92.07;87.28;;;;;;;24.32;37.99;101790.72;5093245;28;20040;-68
2023/07/07 00:36:40;;;;;;;94.10;89.50;;;;;;;24.29;37.75;101779.47;5092964;28;20486;-69
2023/07/07 00:39:05;;;;;;;90.35;86.00;;;;;;;24.26;38.09;101786.44;5092241;28;20063;-69
2023/07/07 00:41:31;;;;;;;93.80;89.20;;;;;;;24.23;37.73;101778.78;5093011;28;20028;-69
2023/07/07 00:44:03;;;;;;;94.20;89.70;;;;;;;24.21;37.78;101777.44;5094660;28;20499;-70
2023/07/07 00:46:29;;;;;;;89.60;85.05;;;;;;;24.17;38.33;101780.84;5097179;28;20077;-68
2023/07/07 00:48:56;;;;;;;90.15;86.07;;;;;;;24.14;37.88;101784.22;5097299;28;20032;-70
2023/07/07 00:51:31;;;;;;;88.35;84.28;;;;;;;24.11;38.12;101779.28;5097205;28;20433;-68
2023/07/07 00:53:56;;;;;;;89.22;84.93;;;;;;;24.09;38.32;101776.06;5097114;28;20024;-68
2023/07/07 00:56:31;;;;;;;89.03;84.63;;;;;;;24.06;37.95;101782.16;5097355;28;20119;-68
2023/07/07 00:59:03;;;;;;;90.43;86.03;;;;;;;24.03;38.26;101787.50;5097619;28;20024;-69
2023/07/07 01:01:29;;;;;;;86.63;82.47;;;;;;;24.01;38.33;101789.75;5097201;28;20569;-72
2023/07/07 01:04:01;;;;;;;88.05;83.72;;;;;;;23.98;38.50;101789.22;5095877;28;20040;-69
2023/07/07 01:06:31;;;;;;;89.55;85.35;;;;;;;23.95;38.25;101787.09;5097425;28;20023;-68
2023/07/07 01:09:06;;;;;;;88.63;84.30;;;;;;;23.93;38.04;101791.28;5096958;28;20145;-68
2023/07/07 01:11:32;;;;;;;90.00;85.60;;;;;;;23.90;38.22;101794.66;5096961;28;20478;-70
2023/07/07 01:13:59;;;;;;;89.38;84.97;;;;;;;23.87;38.55;101785.06;5095175;28;20040;-68
2023/07/07 01:16:39;;;;;;;90.70;86.43;;;;;;;23.85;38.52;101794.78;5096627;28;20040;-69
2023/07/07 01:19:27;;;;;;;85.43;80.85;;;;;;;23.82;38.04;101789.88;5096556;28;20036;-69
2023/07/07 01:22:30;;;;;;;89.03;84.72;;;;;;;23.78;38.55;101786.88;5096777;28;20047;-69
2023/07/07 01:24:56;;;;;;;84.85;80.78;;;;;;;23.74;38.11;101791.41;5096405;28;20024;-69
2023/07/07 01:27:42;;;;;;;86.38;82.35;;;;;;;23.70;38.50;101793.91;5096665;28;20024;-69
2023/07/07 01:30:26;;;;;;;84.63;80.70;;;;;;;23.68;38.37;101787.88;5096425;28;20024;-68
2023/07/07 01:32:52;;;;;;;85.43;81.32;;;;;;;23.66;38.23;101783.78;5096012;28;20032;-68
2023/07/07 01:35:21;;;;;;;84.85;80.85;;;;;;;23.63;38.40;101787.97;5096281;28;20032;-69
2023/07/07 01:37:55;;;;;;;86.50;82.15;;;;;;;23.61;38.46;101784.72;5096481;28;20047;-68
2023/07/07 01:40:28;;;;;;;85.38;81.10;;;;;;;23.58;38.31;101790.03;5094919;28;20028;-71
2023/07/07 01:43:01;;;;;;;85.68;81.50;;;;;;;23.55;38.68;101783.19;5078653;28;20152;-68
2023/07/07 01:46:03;;;;;;;82.90;79.07;;;;;;;23.52;38.27;101786.56;5096172;28;20107;-69
2023/07/07 01:48:48;;;;;;;82.75;78.65;;;;;;;23.49;38.74;101787.19;5096387;28;20031;-70
2023/07/07 01:51:17;;;;;;;83.50;79.50;;;;;;;23.45;38.26;101789.72;5094784;28;20031;-70
2023/07/07 01:53:45;;;;;;;83.60;79.57;;;;;;;23.44;38.35;101782.56;5095942;28;20028;-69
2023/07/07 01:56:13;;;;;;;83.80;79.70;;;;;;;23.40;38.52;101781.53;5094891;28;20077;-70
2023/07/07 01:58:40;;;;;;;83.28;79.22;;;;;;;23.39;38.50;101781.84;5096416;28;20063;-69
2023/07/07 02:01:06;;;;;;;84.28;80.10;;;;;;;23.37;38.42;101786.84;5094577;28;20042;-70
2023/07/07 02:03:31;;;;;;;81.20;77.13;;;;;;;23.33;38.67;101781.94;5095717;28;20032;-68
2023/07/07 02:05:56;;;;;;;85.38;81.07;;;;;;;23.31;38.81;101783.38;5095331;28;20036;-68
2023/07/07 02:08:22;;;;;;;81.60;77.70;;;;;;;23.28;38.47;101781.19;5077253;28;20357;-68
2023/07/07 02:10:48;;;;;;;84.95;80.97;;;;;;;23.25;38.90;101777.13;5095524;28;20109;-69
2023/07/07 02:13:14;;;;;;;83.28;79.22;;;;;;;23.24;38.77;101771.91;5094281;28;20036;-69
2023/07/07 02:15:39;;;;;;;83.00;78.90;;;;;;;23.20;38.73;101771.69;5096179;28;20055;-69
2023/07/07 02:18:05;;;;;;;83.18;79.07;;;;;;;23.18;38.79;101773.94;5095796;28;20036;-69
2023/07/07 02:20:31;;;;;;;79.72;75.82;;;;;;;23.15;38.74;101777.28;5095068;28;20036;-70
2023/07/07 02:22:57;;;;;;;83.63;78.93;;;;;;;23.13;38.39;101775.97;5077299;28;20460;-69
2023/07/07 02:25:22;;;;;;;82.28;78.18;;;;;;;23.10;38.86;101769.13;5096068;28;20086;-70
2023/07/07 02:27:48;;;;;;;84.18;80.07;;;;;;;23.08;38.73;101776.88;5095750;28;20379;-70
2023/07/07 02:30:14;;;;;;;82.95;78.82;;;;;;;23.05;38.71;101775.53;5077133;28;20028;-71
2023/07/07 02:32:39;;;;;;;84.47;80.32;;;;;;;23.03;38.56;101776.94;5095136;28;20036;-70
2023/07/07 02:35:06;;;;;;;84.95;80.85;;;;;;;23.00;38.44;101766.53;5095095;28;20464;-70
2023/07/07 02:37:32;;;;;;;81.65;77.72;;;;;;;22.99;38.53;101770.44;5095063;28;20032;-70
2023/07/07 02:39:58;;;;;;;82.43;78.35;;;;;;;22.96;38.88;101771.00;5095265;28;20113;-70
2023/07/07 02:42:24;;;;;;;81.32;77.10;;;;;;;22.93;38.81;101774.34;5094218;28;20071;-72
2023/07/07 02:44:50;;;;;;;84.43;79.28;;;;;;;22.90;38.56;101779.31;5095404;28;20034;-69
2023/07/07 02:47:16;;;;;;;81.90;77.53;;;;;;;22.88;38.71;101772.47;5094933;28;20103;-69
2023/07/07 02:49:41;;;;;;;80.47;76.57;;;;;;;22.86;39.02;101774.75;5094740;28;20024;-69
2023/07/07 02:52:07;;;;;;;84.55;80.47;;;;;;;22.83;39.11;101770.66;5094574;28;20437;-70
2023/07/07 02:54:33;;;;;;;83.47;79.45;;;;;;;22.81;38.54;101781.16;5094020;28;20032;-68
2023/07/07 02:56:58;;;;;;;79.82;75.70;;;;;;;22.78;39.05;101779.00;5094271;28;20050;-69
2023/07/07 02:59:23;;;;;;;78.18;74.38;;;;;;;22.77;38.55;101779.28;5076544;28;20101;-69
2023/07/07 03:01:49;;;;;;;80.85;77.05;;;;;;;22.74;38.86;101790.91;5094812;28;20024;-69
2023/07/07 03:04:14;;;;;;;80.15;76.25;;;;;;;22.71;38.64;101783.25;5094565;28;20472;-69
2023/07/07 03:06:40;;;;;;;79.15;75.25;;;;;;;22.69;38.83;101792.63;5094663;28;20040;-69
2023/07/07 03:09:06;;;;;;;77.72;74.07;;;;;;;22.67;39.16;101794.03;5094474;28;20051;-69
2023/07/07 03:11:32;;;;;;;79.70;75.32;;;;;;;22.64;38.85;101794.66;5094910;28;20472;-68
2023/07/07 03:13:57;;;;;;;81.10;77.15;;;;;;;22.62;38.77;101796.88;5092932;28;20070;-68
2023/07/07 03:16:30;;;;;;;79.47;75.70;;;;;;;22.59;39.21;101789.22;5093088;28;20028;-69
2023/07/07 03:19:04;;;;;;;80.13;75.97;;;;;;;22.57;39.20;101786.75;5093992;28;20408;-68
2023/07/07 03:21:31;;;;;;;78.63;74.63;;;;;;;22.54;39.11;101784.59;5093990;28;20024;-69
2023/07/07 03:23:57;;;;;;;80.43;76.47;;;;;;;22.52;38.96;101783.25;5094043;28;20413;-72
2023/07/07 03:26:25;;;;;;;77.70;73.85;;;;;;;22.48;39.06;101785.81;5094638;28;20469;-69
2023/07/07 03:28:50;;;;;;;78.90;75.03;;;;;;;22.46;39.10;101785.28;5094026;28;20024;-69
2023/07/07 03:31:23;;;;;;;82.38;78.13;;;;;;;22.45;39.01;101783.63;5094779;28;20135;-70
2023/07/07 03:33:50;;;;;;;75.88;72.20;;;;;;;22.42;39.39;101792.47;5094605;28;20089;-70
2023/07/07 03:36:19;;;;;;;77.50;73.75;;;;;;;22.39;39.22;101788.38;5094539;28;20035;-70
2023/07/07 03:38:44;;;;;;;78.78;74.78;;;;;;;22.38;39.11;101789.50;5093968;28;20028;-69
2023/07/07 03:41:11;;;;;;;77.88;73.68;;;;;;;22.35;39.50;101792.88;5094404;28;20035;-69
2023/07/07 03:43:37;;;;;;;77.15;73.32;;;;;;;22.33;39.20;101794.28;5094004;28;20049;-70
2023/07/07 03:46:03;;;;;;;76.82;73.07;;;;;;;22.30;39.07;101792.09;5094231;28;20024;-69
2023/07/07 03:48:29;;;;;;;77.10;73.45;;;;;;;22.29;39.23;101795.97;5094160;28;20429;-69
2023/07/07 03:50:56;;;;;;;76.63;72.75;;;;;;;22.25;39.22;101791.06;5093918;28;20036;-70
2023/07/07 03:53:21;;;;;;;75.85;72.30;;;;;;;22.23;39.49;101779.53;5093722;28;20060;-70
2023/07/07 03:55:47;;;;;;;74.88;71.18;;;;;;;22.22;38.91;101785.31;5093915;28;20070;-71
2023/07/07 03:58:12;;;;;;;77.45;73.47;;;;;;;22.19;38.94;101777.63;5092391;28;20379;-69
2023/07/07 04:00:37;;;;;;;78.20;74.20;;;;;;;22.17;39.58;101780.66;5094130;28;20024;-69
2023/07/07 04:03:03;;;;;;;79.32;75.25;;;;;;;22.13;39.40;101782.41;5093553;28;20444;-69
2023/07/07 04:05:28;;;;;;;74.20;70.50;;;;;;;22.12;39.16;101782.69;5093544;28;20028;-68
2023/07/07 04:07:54;;;;;;;77.15;73.13;;;;;;;22.09;39.26;101778.59;5093464;28;20039;-69
2023/07/07 04:10:19;;;;;;;75.63;71.93;;;;;;;22.07;39.53;101782.75;5093035;28;20048;-69
2023/07/07 04:12:44;;;;;;;75.80;72.20;;;;;;;22.06;39.24;101786.63;5093511;28;20050;-68
2023/07/07 04:15:10;;;;;;;75.07;70.82;;;;;;;22.02;39.00;101789.97;5092236;28;20041;-68
2023/07/07 04:17:35;;;;;;;76.60;72.80;;;;;;;22.00;39.55;101791.38;5093195;28;20034;-69
2023/07/07 04:20:02;;;;;;;78.05;74.20;;;;;;;21.97;39.31;101783.69;5092661;28;20058;-69
2023/07/07 04:22:29;;;;;;;75.10;71.53;;;;;;;21.95;39.36;101781.25;5093240;28;20081;-69
2023/07/07 04:25:16;;;;;;;77.23;73.23;;;;;;;21.93;39.77;101788.16;5092410;28;20460;-69
2023/07/07 04:27:42;;;;;;;71.45;68.00;;;;;;;21.89;39.60;101790.66;5093344;28;20109;-69
2023/07/07 04:30:09;;;;;;;76.13;72.43;;;;;;;21.88;39.58;101780.78;5093036;28;20255;-69
2023/07/07 04:32:36;;;;;;;74.50;70.70;;;;;;;21.87;39.37;101783.81;5093361;28;20112;-69
2023/07/07 04:35:01;;;;;;;74.43;70.82;;;;;;;21.85;39.72;101788.78;5093231;28;20028;-69
2023/07/07 04:37:28;;;;;;;74.88;71.07;;;;;;;21.81;39.25;101792.13;5094025;28;20115;-70
2023/07/07 04:39:53;;;;;;;73.55;70.00;;;;;;;21.80;39.37;101795.19;5093413;28;20032;-70
2023/07/07 04:42:19;;;;;;;72.88;69.40;;;;;;;21.77;39.35;101793.84;5091915;28;20490;-70
2023/07/07 04:44:44;;;;;;;72.55;69.13;;;;;;;21.76;39.79;101789.44;5093161;28;20042;-70
2023/07/07 04:47:10;;;;;;;74.85;71.22;;;;;;;21.74;39.65;101790.84;5092721;28;20028;-70
2023/07/07 04:49:35;;;;;;;78.05;73.50;;;;;;;21.72;39.44;101799.41;5092895;28;20024;-68
2023/07/07 04:52:00;;;;;;;75.03;71.38;;;;;;;21.70;39.53;101796.13;5093032;28;20067;-68
2023/07/07 04:54:26;;;;;;;74.75;70.88;;;;;;;21.69;39.54;101794.47;5091789;28;20123;-69
2023/07/07 04:56:53;;;;;;;75.15;71.43;;;;;;;21.67;39.69;101793.13;5093381;28;20036;-70
2023/07/07 04:59:19;;;;;;;73.75;69.95;;;;;;;21.65;39.70;101787.94;5093557;28;20043;-69
2023/07/07 05:01:45;;;;;;;75.15;71.15;;;;;;;21.64;39.61;101796.47;5093486;28;20032;-69
2023/07/07 05:04:11;;;;;;;74.70;70.82;;;;;;;21.62;39.79;101794.03;5092664;28;20452;-70
2023/07/07 05:06:38;;;;;;;72.95;69.40;;;;;;;21.61;39.92;101797.88;5093537;28;20035;-69
2023/07/07 05:09:04;;;;;;;75.93;71.47;;;;;;;21.59;40.06;101795.41;5093095;28;20482;-69
2023/07/07 05:11:31;;;;;;;72.43;68.85;;;;;;;21.58;40.20;101801.22;5093095;28;20169;-69
2023/07/07 05:13:57;;;;;;;72.05;68.63;;;;;;;21.56;40.38;101795.19;5092573;28;20047;-70
2023/07/07 05:16:25;;;;;;;71.50;67.93;;;;;;;21.55;39.92;101802.59;5093162;28;20043;-68
2023/07/07 05:18:51;;;;;;;74.13;70.33;;;;;;;21.54;39.85;101798.19;5093147;28;20023;-69
2023/07/07 05:21:19;;;;;;;71.75;68.28;;;;;;;21.53;39.94;101796.56;5092420;28;20047;-72
2023/07/07 05:23:45;;;;;;;71.13;67.40;;;;;;;21.54;39.87;101798.19;5093038;28;20383;-69
2023/07/07 05:26:11;;;;;;;72.10;68.50;;;;;;;21.52;40.25;101796.84;5093279;28;20278;-68
2023/07/07 05:28:36;;;;;;;72.03;68.28;;;;;;;21.52;40.47;101799.59;5074777;28;20043;-68
2023/07/07 05:31:05;;;;;;;73.15;69.45;;;;;;;21.51;40.25;101804.28;5093608;28;20036;-69
2023/07/07 05:33:30;;;;;;;;;;;;;;;21.52;40.04;101802.34;5096699;28;20071;-69
2023/07/07 05:36:00;;;;;;;68.80;65.50;;;;;;;21.49;40.43;101791.94;5096107;28;19954;-76
2023/07/07 05:38:27;;;;;;;71.38;67.88;;;;;;;21.48;40.45;101801.31;5096464;28;20043;-69
2023/07/07 05:40:53;;;;;;;70.10;66.78;;;;;;;21.48;40.05;101799.38;5096250;28;20111;-70
2023/07/07 05:43:21;;;;;;;71.95;68.35;;;;;;;21.47;40.62;101803.25;5096144;28;20543;-69
2023/07/07 05:45:47;;;;;;;70.03;66.30;;;;;;;21.47;40.29;101806.00;5096683;28;20355;-68
2023/07/07 05:48:13;;;;;;;72.72;69.22;;;;;;;21.47;40.37;101806.00;5096531;28;20440;-69
2023/07/07 05:50:40;;;;;;;70.82;67.32;;;;;;;21.47;40.63;101806.00;5095685;28;20031;-70
2023/07/07 05:53:06;;;;;;;71.07;67.68;;;;;;;21.49;40.50;101811.19;5096001;28;20028;-69
2023/07/07 05:55:34;;;;;;;70.43;66.90;;;;;;;21.47;40.33;101803.25;5096633;28;20035;-70
2023/07/07 05:58:03;;;;;;;71.05;67.65;;;;;;;21.48;40.44;101804.88;5095435;28;20463;-71
2023/07/07 06:00:30;;;;;;;72.57;69.07;;;;;;;21.49;40.36;101803.75;5095568;28;20040;-69
2023/07/07 06:02:57;;;;;;;70.63;67.25;;;;;;;21.48;40.55;101804.88;5095473;28;20028;-68
2023/07/07 06:05:24;;;;;;;73.60;70.10;;;;;;;21.49;40.93;101809.25;5094408;28;20050;-69
2023/07/07 06:07:51;;;;;;;72.97;69.43;;;;;;;21.49;40.66;101802.94;5095033;28;20028;-69
2023/07/07 06:10:17;;;;;;;72.90;69.47;;;;;;;21.50;40.85;101810.91;5095685;28;20071;-70
2023/07/07 06:12:42;;;;;;;72.30;68.28;;;;;;;21.47;41.21;101814.25;5095614;28;20132;-70
2023/07/07 06:15:09;;;;;;;73.95;70.07;;;;;;;21.49;40.77;101813.94;5094926;28;20424;-71
2023/07/07 06:17:34;;;;;;;70.85;67.28;;;;;;;21.50;41.05;101816.41;5095506;28;20038;-70
2023/07/07 06:20:00;;;;;;;71.07;67.75;;;;;;;21.51;40.97;101825.47;5095465;28;20024;-69
2023/07/07 06:22:26;;;;;;;73.03;69.32;;;;;;;21.53;41.18;101817.75;5094096;28;20028;-69
2023/07/07 06:24:52;;;;;;;71.18;67.50;;;;;;;21.52;41.63;101822.44;5095411;28;20051;-69
2023/07/07 06:27:17;;;;;;;73.88;70.28;;;;;;;21.52;41.39;101814.19;5094948;28;20031;-69
2023/07/07 06:29:43;;;;;;;70.82;67.43;;;;;;;21.53;41.76;101823.25;5094971;28;20107;-71
2023/07/07 06:32:09;;;;;;;72.95;69.35;;;;;;;21.54;41.93;101822.94;5095722;28;20107;-71
2023/07/07 06:34:34;;;;;;;76.50;72.25;;;;;;;21.57;41.46;101825.13;5094952;28;20110;-71
2023/07/07 06:37:00;;;;;;;73.40;69.50;;;;;;;21.58;41.97;101815.78;5095151;28;20490;-74
2023/07/07 06:39:29;;;;;;;73.32;69.75;;;;;;;21.64;42.04;101826.72;5093775;28;20035;-70
2023/07/07 06:41:56;;;;;;;72.45;69.05;;;;;;;21.67;41.75;101821.47;5093005;28;20369;-72
2023/07/07 06:44:21;;;;;;;72.90;69.20;;;;;;;21.71;42.23;101828.00;5093534;28;20032;-69
2023/07/07 06:46:47;;;;;;;72.93;69.25;;;;;;;21.75;41.86;101829.06;5094117;28;20039;-70
2023/07/07 06:49:12;;;;;;;74.63;70.93;;;;;;;21.79;41.99;101837.53;5095000;28;20039;-69
2023/07/07 06:51:38;;;;;;;72.93;68.85;;;;;;;21.83;41.88;101828.41;5095366;28;20112;-69
2023/07/07 06:54:04;;;;;;;74.22;70.68;;;;;;;21.88;42.18;101829.50;5095199;28;20028;-69
2023/07/07 06:56:29;;;;;;;72.63;69.00;;;;;;;21.91;42.21;101832.47;5094419;28;20472;-69
2023/07/07 06:58:54;;;;;;;73.72;69.95;;;;;;;21.95;42.27;101836.28;5094370;28;20533;-69
2023/07/07 07:01:20;;;;;;;76.55;72.55;;;;;;;21.99;42.25;101836.50;5094516;28;20535;-69
2023/07/07 07:03:45;;;;;;;75.43;71.85;;;;;;;22.01;42.39;101848.84;5095305;28;20028;-69
2023/07/07 07:06:12;;;;;;;75.93;72.03;;;;;;;22.05;42.29;101846.34;5094619;28;20387;-69
2023/07/07 07:08:37;;;;;;;76.28;72.28;;;;;;;22.09;41.99;101843.81;5094746;28;20115;-69
2023/07/07 07:11:03;;;;;;;75.82;72.30;;;;;;;22.12;42.28;101838.53;5095024;28;20093;-69
2023/07/07 07:13:28;;;;;;;73.35;69.70;;;;;;;22.17;42.43;101832.97;5094622;28;20081;-70
2023/07/07 07:15:55;;;;;;;76.22;72.15;;;;;;;22.23;42.25;101842.03;5094414;28;20043;-69
2023/07/07 07:18:20;;;;;;;77.30;73.53;;;;;;;22.26;42.14;101844.19;5093758;28;20036;-69
2023/07/07 07:20:50;;;;;;;75.63;71.45;;;;;;;22.31;42.27;101841.38;5093998;28;20383;-69
2023/07/07 07:23:16;;;;;;;80.65;76.30;;;;;;;22.35;42.69;101845.16;5094163;28;20107;-69
2023/07/07 07:25:45;;;;;;;77.57;73.90;;;;;;;22.40;42.34;101842.34;5092993;28;20103;-69
2023/07/07 07:28:11;;;;;;;;;;;;;;;22.44;42.64;101848.06;5094530;28;20032;-69
2023/07/07 07:30:36;;;;;;;76.45;72.65;;;;;;;22.49;42.11;101839.75;5094924;28;19908;-70
2023/07/07 07:33:09;;;;;;;78.50;74.72;;;;;;;22.54;42.35;101849.88;5093807;28;20468;-69
2023/07/07 07:35:35;;;;;;;76.60;72.93;;;;;;;22.59;42.80;101839.59;5094023;28;20042;-70
2023/07/07 07:38:00;;;;;;;77.53;73.82;;;;;;;22.65;42.63;101848.59;5094253;28;20031;-70
2023/07/07 07:40:26;;;;;;;79.07;75.30;;;;;;;22.72;42.63;101842.72;5093989;28;20383;-70
2023/07/07 07:42:51;;;;;;;79.13;75.20;;;;;;;22.77;42.74;101837.94;5094117;28;20462;-71
2023/07/07 07:45:19;;;;;;;79.93;76.13;;;;;;;22.82;42.62;101843.38;5093831;28;20029;-70
2023/07/07 07:47:45;;;;;;;80.90;76.80;;;;;;;22.90;42.71;101844.63;5093820;28;20130;-70
2023/07/07 07:50:11;;;;;;;80.97;77.18;;;;;;;22.95;42.67;101841.81;5094077;28;20064;-75
2023/07/07 07:52:36;;;;;;;84.28;80.05;;;;;;;23.02;42.67;101841.47;5092348;28;20106;-69
2023/07/07 07:55:02;;;;;;;80.13;76.30;;;;;;;23.09;42.80;101848.22;5075351;28;20379;-68
2023/07/07 07:57:27;;;;;;;84.10;80.13;;;;;;;23.17;42.64;101838.44;5093539;28;20449;-72
2023/07/07 07:59:53;;;;;;;83.22;79.32;;;;;;;23.24;42.66;101841.66;5094033;28;20032;-70
2023/07/07 08:02:18;;;;;;;86.47;82.15;;;;;;;23.33;42.52;101850.88;5093762;28;20391;-70
2023/07/07 08:04:44;;;;;;;83.90;79.97;;;;;;;23.41;42.40;101848.50;5093204;28;20521;-68
2023/07/07 08:07:09;;;;;;;85.20;81.20;;;;;;;23.49;41.93;101850.59;5093491;28;20537;-68
2023/07/07 08:09:35;;;;;;;84.13;80.22;;;;;;;23.58;42.27;101858.97;5093344;28;20430;-69
2023/07/07 08:12:01;;;;;;;85.00;81.05;;;;;;;23.65;42.28;101859.41;5093624;28;20039;-69
2023/07/07 08:14:31;;;;;;;88.43;84.03;;;;;;;23.73;42.00;101855.97;5093354;28;20114;-69
2023/07/07 08:17:08;;;;;;;82.65;78.90;;;;;;;23.83;41.93;101854.97;5093629;28;20024;-69
2023/07/07 08:19:36;;;;;;;84.65;80.35;;;;;;;23.91;42.13;101855.06;5093407;28;20067;-71
2023/07/07 08:22:11;;;;;;;84.50;80.63;;;;;;;23.99;41.96;101853.53;5093087;28;20444;-70
2023/07/07 08:24:43;;;;;;;88.28;84.30;;;;;;;24.09;41.55;101856.09;5093703;28;20472;-70
2023/07/07 08:27:10;;;;;;;89.55;85.55;;;;;;;24.18;41.57;101862.50;5093551;28;20032;-70
2023/07/07 08:29:38;;;;;;;89.45;85.53;;;;;;;24.27;41.53;101854.34;5092994;28;20029;-71
2023/07/07 08:32:04;;;;;;;92.82;88.70;;;;;;;24.37;41.47;101853.31;5093310;28;20040;-70
2023/07/07 08:34:29;;;;;;;92.10;87.90;;;;;;;24.46;41.36;101853.41;5092092;28;20438;-68
2023/07/07 08:36:59;;;;;;;91.40;87.18;;;;;;;24.55;41.48;101857.91;5092948;28;20115;-69
2023/07/07 08:39:26;;;;;;;98.38;93.70;;;;;;;24.65;41.46;101856.03;5093200;28;20035;-68
2023/07/07 08:41:55;;;;;;;93.63;89.47;;;;;;;24.75;40.98;101850.28;5093198;28;20039;-74
2023/07/07 08:44:23;;;;;;;94.93;90.68;;;;;;;24.85;40.95;101852.81;5093405;28;20380;-70
2023/07/07 08:47:07;;;;;;;93.20;88.90;;;;;;;24.97;41.13;101852.22;5093250;28;20099;-70
2023/07/07 08:49:42;;;;;;;97.97;93.55;;;;;;;25.04;41.01;101850.66;5093727;28;20056;-68
2023/07/07 08:52:07;;;;;;;95.38;90.75;;;;;;;25.15;40.93;101844.88;5093472;28;20042;-68
2023/07/07 08:54:44;;;;;;;98.63;93.82;;;;;;;25.25;40.07;101850.19;5091488;28;20028;-68
2023/07/07 08:57:14;;;;;;;101.30;96.65;;;;;;;25.36;40.15;101846.03;5093225;28;20028;-68
2023/07/07 09:00:01;;;;;;;98.75;94.38;;;;;;;25.46;40.29;101851.28;5092697;28;20094;-71
2023/07/07 09:03:09;;;;;;;98.95;94.28;;;;;;;25.58;40.51;101847.13;5092874;28;20032;-68
2023/07/07 09:06:09;;;;;;;98.32;93.97;;;;;;;25.70;40.20;101844.56;5095216;28;20145;-71
2023/07/07 09:08:53;;;;;;;101.28;96.75;;;;;;;25.82;39.83;101850.31;5096451;28;20028;-70
2023/07/07 09:11:34;;;;;;;102.72;98.07;;;;;;;25.93;39.66;101848.13;5096941;28;20118;-79
2023/07/07 09:14:00;;;;;;;102.28;97.20;;;;;;;26.03;40.29;101850.59;5096558;28;20035;-69
2023/07/07 09:16:32;;;;;;;101.43;96.63;;;;;;;26.14;39.77;101842.81;5096492;28;20031;-70
2023/07/07 09:19:19;;;;;;;105.82;100.97;;;;;;;26.25;39.40;101846.09;5096470;28;20534;-71
2023/07/07 09:21:51;;;;;;;106.10;101.30;;;;;;;26.36;39.66;101847.41;5096716;28;20093;-69
2023/07/07 09:24:20;;;;;;;102.10;97.43;;;;;;;26.48;39.17;101844.81;5096488;28;20032;-69
2023/07/07 09:26:49;;;;;;;105.97;101.03;;;;;;;26.59;38.47;101842.59;5096129;28;20024;-70
2023/07/07 09:29:18;;;;;;;;;;;;;;;26.68;39.37;101837.03;5097043;28;20082;-70
2023/07/07 09:31:45;;;;;;;103.30;98.70;;;;;;;26.77;39.27;101844.22;5096899;28;20427;-72
2023/07/07 09:34:12;;;;;;;107.15;102.45;;;;;;;26.88;38.50;101844.69;5095005;28;20032;-72
2023/07/07 09:37:07;;;;;;;109.25;104.20;;;;;;;27.01;38.35;101847.63;5096752;28;20028;-71
2023/07/07 09:39:50;;;;;;;108.43;103.53;;;;;;;27.11;37.88;101839.75;5091105;28;20044;-72
2023/07/07 09:42:39;;;;;;;110.03;105.18;;;;;;;27.24;37.39;101840.78;5096445;28;20028;-74
2023/07/07 09:45:13;;;;;;;111.53;106.63;;;;;;;27.36;37.52;101837.31;5095765;28;20106;-69
2023/07/07 09:48:02;;;;;;;112.63;107.72;;;;;;;27.49;37.60;101844.59;5096671;28;20071;-71
2023/07/07 09:50:50;;;;;;;110.88;105.80;;;;;;;27.61;38.04;101841.94;5096630;28;20386;-70
2023/07/07 09:53:22;;;;;;;116.03;111.00;;;;;;;27.71;37.59;101835.22;5095365;28;20040;-70
2023/07/07 09:55:48;;;;;;;115.40;110.20;;;;;;;27.81;37.28;101837.66;5095911;28;20077;-70
2023/07/07 09:58:16;;;;;;;116.45;111.45;;;;;;;27.93;37.18;101833.38;5096139;28;20036;-70
2023/07/07 10:00:44;;;;;;;;;;;;;;;28.01;38.33;101836.09;5096700;28;20112;-72
2023/07/07 10:03:28;;;;;;;116.35;111.05;;;;;;;28.13;37.53;101829.00;5096378;28;19916;-70
2023/07/07 10:05:55;;;;;;;122.22;116.95;;;;;;;28.22;37.26;101830.59;5096446;28;20020;-72
2023/07/07 10:08:21;;;;;;;117.35;112.25;;;;;;;28.34;36.89;101829.03;5077651;28;20063;-70
2023/07/07 10:10:56;;;;;;;121.90;116.60;;;;;;;28.46;36.60;101826.34;5095459;28;20088;-71
2023/07/07 10:13:22;;;;;;;115.72;110.00;;;;;;;28.56;35.97;101819.59;5094274;28;20036;-71
2023/07/07 10:16:05;;;;;;;120.20;114.97;;;;;;;28.67;35.31;101823.56;5095328;28;20035;-69
2023/07/07 10:18:32;;;;;;;118.43;113.28;;;;;;;28.78;34.64;101821.16;5095139;28;20468;-70
2023/07/07 10:21:03;;;;;;;124.97;119.47;;;;;;;28.88;34.17;101821.59;5095879;28;20028;-70
2023/07/07 10:23:29;;;;;;;124.88;119.32;;;;;;;28.99;34.41;101821.16;5095255;28;20036;-71
2023/07/07 10:25:55;;;;;;;126.60;121.22;;;;;;;29.09;35.01;101809.63;5096087;28;20314;-70
2023/07/07 10:28:21;;;;;;;123.03;117.72;;;;;;;29.19;35.35;101803.63;5095136;28;20035;-70
2023/07/07 10:30:48;;;;;;;129.40;123.80;;;;;;;29.29;34.91;101802.38;5094988;28;20032;-72
2023/07/07 10:33:16;;;;;;;129.18;123.53;;;;;;;29.39;34.42;101809.47;5095026;28;20068;-70
2023/07/07 10:35:42;;;;;;;128.73;123.10;;;;;;;29.49;34.67;101809.81;5094729;28;20039;-69
2023/07/07 10:38:10;;;;;;;133.55;127.72;;;;;;;29.59;34.62;101814.13;5093748;28;20376;-69
2023/07/07 10:40:36;;;;;;;130.25;124.55;;;;;;;29.70;34.10;101804.19;5094590;28;20035;-70
2023/07/07 10:43:04;;;;;;;129.18;123.28;;;;;;;29.80;33.84;101804.88;5094789;28;20032;-70
2023/07/07 10:45:29;;;;;;;136.18;129.80;;;;;;;29.89;33.69;101797.22;5094809;28;20082;-70
2023/07/07 10:47:55;;;;;;;133.90;128.18;;;;;;;30.00;33.79;101801.16;5095415;28;20375;-72
2023/07/07 10:50:25;;;;;;;137.65;131.65;;;;;;;30.11;33.31;101798.69;5095501;28;20418;-73
2023/07/07 10:52:59;;;;;;;134.48;128.75;;;;;;;30.20;32.42;101807.75;5093303;28;20031;-69
2023/07/07 10:55:47;;;;;;;143.02;136.73;;;;;;;30.30;33.04;101800.91;5093886;28;20123;-69
2023/07/07 10:58:13;;;;;;;134.73;129.00;;;;;;;30.40;33.08;101797.63;5088813;28;20523;-67
2023/07/07 11:01:02;;;;;;;147.82;141.27;;;;;;;30.47;32.52;101800.63;5094494;28;20107;-71
2023/07/07 11:03:34;;;;;;;139.57;133.38;;;;;;;30.56;32.38;101795.69;5093511;28;20024;-75
2023/07/07 11:06:16;;;;;;;142.70;136.30;;;;;;;30.66;32.32;101791.59;5094521;28;20042;-72
2023/07/07 11:08:59;;;;;;;138.20;132.32;;;;;;;30.78;32.52;101791.53;5094360;28;20031;-71
2023/07/07 11:11:43;;;;;;;139.70;133.63;;;;;;;30.88;31.94;101792.25;5094606;28;20028;-77
2023/07/07 11:14:19;;;;;;;144.02;137.73;;;;;;;30.97;31.02;101796.50;5094062;28;20111;-71